createdAt,value
2022-12-14T00:00:42.205Z,18.43
2022-12-14T00:03:10.585Z,17.63
2022-12-14T00:05:38.753Z,17.60
2022-12-14T00:08:06.296Z,17.80
2022-12-14T00:10:33.812Z,17.90
2022-12-14T00:13:02.144Z,15.40
2022-12-14T00:15:29.771Z,14.63
2022-12-14T00:17:57.204Z,17.10
2022-12-14T00:20:25.546Z,16.77
2022-12-14T00:22:53.062Z,15.03
2022-12-14T00:25:20.605Z,17.25
2022-12-14T00:27:49.104Z,15.80
2022-12-14T00:30:16.631Z,17.93
2022-12-14T00:32:44.922Z,15.37
2022-12-14T00:35:12.486Z,18.53
2022-12-14T00:37:40.033Z,18.13
2022-12-14T00:40:08.432Z,17.47
2022-12-14T00:42:36.028Z,15.23
2022-12-14T00:45:03.561Z,14.60
2022-12-14T00:47:33.873Z,17.23
2022-12-14T00:49:59.694Z,14.27
2022-12-14T00:52:27.218Z,17.80
2022-12-14T00:54:55.511Z,16.80
2022-12-14T00:57:23.086Z,16.77
2022-12-14T00:59:50.610Z,17.10
2022-12-14T01:02:18.962Z,17.23
2022-12-14T01:04:47.235Z,17.20
2022-12-14T01:07:14.772Z,15.03
2022-12-14T01:09:42.296Z,14.77
2022-12-14T01:12:10.629Z,14.97
2022-12-14T01:14:38.162Z,17.77
2022-12-14T01:17:05.696Z,21.08
2022-12-14T01:19:34.611Z,15.43
2022-12-14T01:22:02.137Z,16.80
2022-12-14T01:24:30.437Z,13.83
2022-12-14T01:26:58.033Z,15.33
2022-12-14T01:29:25.556Z,16.20
2022-12-14T01:31:53.081Z,16.60
2022-12-14T01:34:21.423Z,17.83
2022-12-14T01:36:48.967Z,17.25
2022-12-14T01:39:16.512Z,18.37
2022-12-14T01:41:46.500Z,16.87
2022-12-14T01:44:18.028Z,14.13
2022-12-14T01:46:48.525Z,14.50
2022-12-14T01:49:19.358Z,17.10
2022-12-14T01:51:47.610Z,16.80
2022-12-14T01:54:15.131Z,16.00
2022-12-14T01:56:42.697Z,18.93
2022-12-14T01:59:10.221Z,17.63
2022-12-14T02:01:37.865Z,15.77
2022-12-14T02:04:05.311Z,13.50
2022-12-14T02:06:35.799Z,18.23
2022-12-14T02:09:03.325Z,15.63
2022-12-14T02:11:34.747Z,13.73
2022-12-14T02:14:02.288Z,15.73
2022-12-14T02:16:30.610Z,15.20
2022-12-14T02:18:58.141Z,15.83
2022-12-14T02:21:40.720Z,13.63
2022-12-14T02:24:39.160Z,17.90
2022-12-14T02:27:28.475Z,12.90
2022-12-14T02:30:00.835Z,16.47
2022-12-14T02:32:30.763Z,15.13
2022-12-14T02:35:04.814Z,17.02
2022-12-14T02:37:38.375Z,14.70
2022-12-14T02:40:30.827Z,20.53
2022-12-14T02:43:07.266Z,14.70
2022-12-14T02:45:37.722Z,14.30
2022-12-14T02:48:08.241Z,15.60
2022-12-14T02:50:43.612Z,14.10
2022-12-14T02:53:11.137Z,16.10
2022-12-14T02:55:39.440Z,14.40
2022-12-14T02:58:07.320Z,14.90
2022-12-14T03:00:34.915Z,14.60
2022-12-14T03:03:03.188Z,15.87
2022-12-14T03:05:30.723Z,14.63
2022-12-14T03:08:03.831Z,15.20
2022-12-14T03:10:59.425Z,17.17
2022-12-14T03:13:32.745Z,15.25
2022-12-14T03:16:12.450Z,14.10
2022-12-14T03:18:43.289Z,17.45
2022-12-14T03:21:10.813Z,15.43
2022-12-14T03:23:39.154Z,17.47
2022-12-14T03:26:12.399Z,14.17
2022-12-14T03:28:51.513Z,15.83
2022-12-14T03:31:19.866Z,14.27
2022-12-14T03:33:47.342Z,16.23
2022-12-14T03:36:26.927Z,14.17
2022-12-14T03:38:54.452Z,13.60
2022-12-14T03:41:28.475Z,14.20
2022-12-14T03:44:04.735Z,14.43
2022-12-14T03:46:51.085Z,16.37
2022-12-14T03:49:49.143Z,14.10
2022-12-14T03:52:25.124Z,13.13
2022-12-14T03:54:58.715Z,16.47
2022-12-14T03:57:44.701Z,15.73
2022-12-14T04:00:12.825Z,13.53
2022-12-14T04:02:59.753Z,15.07
2022-12-14T04:07:56.432Z,15.40
2022-12-14T04:10:23.950Z,16.03
2022-12-14T04:13:10.800Z,14.27
2022-12-14T04:15:56.581Z,17.20
2022-12-14T04:18:42.420Z,16.55
2022-12-14T04:21:12.877Z,14.20
2022-12-14T04:23:58.324Z,13.27
2022-12-14T04:26:25.849Z,16.27
2022-12-14T04:29:14.396Z,13.77
2022-12-14T04:31:41.983Z,12.73
2022-12-14T04:34:09.532Z,13.90
2022-12-14T04:36:40.139Z,14.83
2022-12-14T04:39:07.665Z,15.70
2022-12-14T04:41:35.969Z,16.00
2022-12-14T04:44:03.532Z,15.77
2022-12-14T04:46:31.066Z,14.23
2022-12-14T04:49:20.312Z,15.17
2022-12-14T04:51:54.069Z,14.53
2022-12-14T04:54:27.611Z,17.37
2022-12-14T04:57:01.146Z,15.07
2022-12-14T04:59:28.675Z,15.90
2022-12-14T05:02:14.627Z,14.10
2022-12-14T05:04:45.268Z,17.85
2022-12-14T05:07:12.805Z,14.97
2022-12-14T05:09:42.891Z,16.87
2022-12-14T05:12:22.387Z,13.23
2022-12-14T05:15:04.828Z,15.37
2022-12-14T05:17:33.124Z,15.83
2022-12-14T05:20:00.646Z,16.60
2022-12-14T05:22:28.250Z,15.00
2022-12-14T05:24:55.774Z,13.07
2022-12-14T05:27:24.077Z,13.57
2022-12-14T05:29:51.946Z,16.20
2022-12-14T05:32:19.482Z,14.53
2022-12-14T05:34:47.843Z,13.33
2022-12-14T05:37:18.397Z,13.73
2022-12-14T05:39:42.942Z,13.80
2022-12-14T05:42:10.477Z,17.57
2022-12-14T05:44:38.042Z,16.98
2022-12-14T05:47:05.596Z,16.42
2022-12-14T05:49:33.110Z,13.67
2022-12-14T05:52:01.445Z,13.73
2022-12-14T05:54:28.968Z,12.37
2022-12-14T05:56:56.495Z,13.30
2022-12-14T05:59:24.924Z,15.77
2022-12-14T06:01:52.475Z,15.93
2022-12-14T06:04:20.782Z,19.23
2022-12-14T06:06:48.324Z,13.97
2022-12-14T06:09:18.744Z,16.90
2022-12-14T06:11:46.278Z,16.00
2022-12-14T06:14:14.365Z,13.93
2022-12-14T06:16:41.892Z,16.03
2022-12-14T06:19:10.203Z,15.03
2022-12-14T06:21:38.672Z,15.37
2022-12-14T06:24:06.285Z,14.70
2022-12-14T06:26:33.812Z,14.80
2022-12-14T06:29:01.404Z,15.10
2022-12-14T06:31:28.982Z,15.30
2022-12-14T06:33:56.476Z,16.77
2022-12-14T06:36:24.064Z,14.23
2022-12-14T06:38:51.595Z,12.57
2022-12-14T06:41:19.117Z,14.03
2022-12-14T06:43:49.344Z,15.67
2022-12-14T06:46:15.919Z,15.57
2022-12-14T06:48:42.539Z,15.07
2022-12-14T06:51:10.113Z,16.00
2022-12-14T06:53:37.638Z,14.80
2022-12-14T06:56:08.924Z,18.00
2022-12-14T06:58:36.787Z,14.90
2022-12-14T07:01:04.347Z,14.37
2022-12-14T07:03:32.892Z,16.20
2022-12-14T07:06:00.177Z,13.87
2022-12-14T07:08:27.701Z,15.43
2022-12-14T07:11:01.933Z,14.97
2022-12-14T07:13:23.558Z,14.63
2022-12-14T07:15:54.115Z,14.13
2022-12-14T07:18:21.591Z,17.07
2022-12-14T07:21:07.139Z,18.60
2022-12-14T07:23:35.236Z,15.37
2022-12-14T07:26:05.768Z,15.43
2022-12-14T07:28:33.333Z,16.03
2022-12-14T07:31:00.910Z,14.97
2022-12-14T07:33:28.768Z,15.10
2022-12-14T07:36:08.057Z,15.77
2022-12-14T07:38:35.602Z,15.83
2022-12-14T07:41:08.562Z,17.73
2022-12-14T07:43:37.190Z,18.30
2022-12-14T07:46:04.786Z,12.17
2022-12-14T07:48:33.041Z,16.90
2022-12-14T07:51:06.579Z,13.50
2022-12-14T07:53:34.870Z,14.30
2022-12-14T07:56:03.179Z,17.23
2022-12-14T07:58:31.960Z,14.33
2022-12-14T08:01:17.679Z,16.37
2022-12-14T08:03:47.899Z,16.07
2022-12-14T08:06:15.426Z,17.60
2022-12-14T08:08:42.951Z,13.50
2022-12-14T08:11:11.303Z,17.03
2022-12-14T08:13:38.862Z,15.53
2022-12-14T08:16:06.469Z,17.50
2022-12-14T08:18:34.006Z,15.23
2022-12-14T08:21:02.299Z,14.00
2022-12-14T08:23:31.016Z,13.67
2022-12-14T08:25:58.785Z,15.60
2022-12-14T08:28:26.302Z,16.13
2022-12-14T08:30:54.593Z,15.27
2022-12-14T08:33:22.178Z,14.63
2022-12-14T08:35:49.704Z,13.33
2022-12-14T08:38:17.239Z,14.93
2022-12-14T08:40:45.580Z,13.23
2022-12-14T08:43:13.116Z,13.23
2022-12-14T08:45:40.639Z,16.00
2022-12-14T08:48:08.971Z,13.80
2022-12-14T08:50:36.546Z,12.97
2022-12-14T08:53:04.082Z,14.13
2022-12-14T08:55:38.191Z,14.23
2022-12-14T08:57:59.208Z,15.77
2022-12-14T09:00:26.820Z,16.03
2022-12-14T09:02:55.329Z,21.23
2022-12-14T09:05:22.748Z,13.60
2022-12-14T09:07:51.063Z,16.97
2022-12-14T09:10:18.625Z,17.20
2022-12-14T09:12:46.150Z,15.50
2022-12-14T09:15:14.472Z,16.20
2022-12-14T09:17:42.037Z,15.23
2022-12-14T09:20:09.694Z,12.60
2022-12-14T09:22:37.217Z,14.77
2022-12-14T09:25:04.779Z,15.87
2022-12-14T09:27:32.304Z,16.73
2022-12-14T09:29:59.833Z,14.70
2022-12-14T09:32:27.398Z,15.77
2022-12-14T09:34:54.931Z,16.07
2022-12-14T09:37:22.475Z,17.33
2022-12-14T09:39:50.040Z,17.80
2022-12-14T09:42:38.418Z,15.07
2022-12-14T09:45:15.180Z,16.00
2022-12-14T09:47:42.734Z,15.97
2022-12-14T09:50:13.205Z,16.20
2022-12-14T09:52:52.375Z,18.07
2022-12-14T09:55:22.854Z,14.17
2022-12-14T09:57:50.398Z,13.90
2022-12-14T10:00:18.075Z,16.97
2022-12-14T10:03:06.804Z,16.13
2022-12-14T10:05:54.691Z,17.60
2022-12-14T10:08:23.001Z,15.23
2022-12-14T10:11:12.122Z,15.20
2022-12-14T10:14:04.116Z,15.63
2022-12-14T10:16:34.875Z,13.40
2022-12-14T10:19:17.400Z,17.13
2022-12-14T10:21:51.010Z,15.47
2022-12-14T10:24:22.394Z,13.37
2022-12-14T10:26:52.854Z,14.30
2022-12-14T10:29:25.862Z,14.63
2022-12-14T10:32:02.521Z,15.80
2022-12-14T10:34:30.819Z,14.73
2022-12-14T10:37:08.018Z,15.43
2022-12-14T10:39:53.584Z,14.50
2022-12-14T10:42:36.923Z,16.83
2022-12-14T10:45:41.827Z,17.00
2022-12-14T10:47:55.910Z,18.17
2022-12-14T10:50:50.045Z,17.25
2022-12-14T10:53:12.806Z,14.13
2022-12-14T10:55:40.340Z,17.10
2022-12-14T10:58:07.935Z,15.47
2022-12-14T11:00:35.461Z,16.57
2022-12-14T11:03:03.049Z,14.87
2022-12-14T11:05:49.308Z,14.50
2022-12-14T11:08:41.643Z,17.07
2022-12-14T11:11:11.658Z,18.03
2022-12-14T11:13:36.731Z,18.40
2022-12-14T11:16:19.656Z,17.17
2022-12-14T11:18:47.104Z,14.47
2022-12-14T11:21:15.407Z,17.55
2022-12-14T11:23:43.000Z,17.07
2022-12-14T11:26:16.343Z,14.73
2022-12-14T11:28:49.894Z,13.67
2022-12-14T11:31:23.029Z,15.87
2022-12-14T11:33:52.920Z,16.67
2022-12-14T11:36:23.171Z,17.73
2022-12-14T11:38:56.510Z,16.13
2022-12-14T11:41:24.040Z,12.43
2022-12-14T11:44:03.609Z,14.73
2022-12-14T11:46:45.975Z,14.70
2022-12-14T11:49:38.344Z,16.67
2022-12-14T11:52:05.876Z,17.25
2022-12-14T11:54:36.299Z,15.43
2022-12-14T11:57:12.363Z,13.67
2022-12-14T11:59:48.895Z,15.33
2022-12-14T12:02:31.591Z,15.80
2022-12-14T12:05:16.971Z,15.20
2022-12-14T12:07:50.197Z,17.57
2022-12-14T12:10:18.511Z,16.17
2022-12-14T12:12:54.418Z,15.60
2022-12-14T12:15:19.355Z,15.90
2022-12-14T12:17:46.874Z,16.20
2022-12-14T12:20:21.032Z,13.97
2022-12-14T12:22:48.597Z,15.87
2022-12-14T12:25:26.576Z,16.87
2022-12-14T12:27:43.658Z,15.77
2022-12-14T12:30:15.034Z,18.27
2022-12-14T12:32:50.064Z,12.90
2022-12-14T12:35:16.582Z,15.60
2022-12-14T12:37:54.545Z,16.73
2022-12-14T12:40:24.855Z,16.85
2022-12-14T12:42:57.727Z,15.83
2022-12-14T12:45:37.216Z,16.83
2022-12-14T12:48:07.512Z,14.43
2022-12-14T12:50:35.003Z,14.63
2022-12-14T12:53:11.436Z,17.93
2022-12-14T12:55:38.952Z,18.60
2022-12-14T12:58:06.482Z,20.57
2022-12-14T13:00:34.065Z,31.90
2022-12-14T13:03:14.736Z,21.43
2022-12-14T13:05:47.299Z,16.13
2022-12-14T13:08:09.732Z,15.53
2022-12-14T13:10:50.615Z,15.83
2022-12-14T13:13:11.059Z,26.50
2022-12-14T13:15:38.671Z,15.03
2022-12-14T13:18:56.540Z,14.03
2022-12-14T13:20:55.416Z,14.30
2022-12-14T13:23:46.009Z,18.83
2022-12-14T13:26:09.059Z,15.03
2022-12-14T13:28:57.984Z,18.07
2022-12-14T13:31:31.567Z,19.07
2022-12-14T13:34:17.024Z,14.60
2022-12-14T13:36:59.621Z,16.10
2022-12-14T13:39:45.093Z,16.60
2022-12-14T13:43:06.325Z,13.97
2022-12-14T13:45:36.756Z,29.13
2022-12-14T13:48:04.290Z,15.73
2022-12-14T13:50:42.393Z,18.37
2022-12-14T13:53:06.104Z,15.80
2022-12-14T13:55:39.672Z,17.52
2022-12-14T13:58:19.812Z,18.50
2022-12-14T14:00:54.118Z,16.63
2022-12-14T14:03:37.921Z,15.73
2022-12-14T14:06:26.603Z,17.73
2022-12-14T14:08:55.143Z,18.80
2022-12-14T14:11:37.090Z,19.25
2022-12-14T14:14:11.066Z,15.67
2022-12-14T14:16:38.589Z,18.97
2022-12-14T14:19:09.808Z,14.53
2022-12-14T14:22:22.371Z,21.33
2022-12-14T14:24:27.469Z,17.73
2022-12-14T14:27:12.669Z,23.53
2022-12-14T14:29:45.550Z,22.63
2022-12-14T14:32:31.535Z,25.53
2022-12-14T14:34:59.067Z,22.60
2022-12-14T14:37:36.271Z,20.37
2022-12-14T14:40:18.909Z,30.80
2022-12-14T14:42:34.325Z,32.53
2022-12-14T14:45:02.656Z,26.13
2022-12-14T14:47:36.275Z,26.53
2022-12-14T14:50:15.595Z,22.80
2022-12-14T14:52:43.129Z,24.52
2022-12-14T14:58:07.502Z,21.33
2022-12-14T15:00:50.799Z,22.10
2022-12-14T15:03:18.448Z,22.23
2022-12-14T15:05:45.896Z,20.13
2022-12-14T15:08:35.043Z,20.63
2022-12-14T15:11:05.299Z,19.13
2022-12-14T15:13:54.422Z,19.63
2022-12-14T15:16:21.984Z,20.30
2022-12-14T15:18:50.265Z,24.27
2022-12-14T15:21:18.153Z,23.53
2022-12-14T15:23:49.590Z,21.57
2022-12-14T15:26:21.902Z,19.60
2022-12-14T15:28:49.466Z,18.83
2022-12-14T15:31:17.029Z,20.70
2022-12-14T15:33:44.525Z,21.12
2022-12-14T15:36:15.349Z,19.13
2022-12-14T15:38:42.892Z,19.83
2022-12-14T15:41:13.937Z,17.80
2022-12-14T15:43:48.172Z,23.57
2022-12-14T15:46:18.517Z,21.13
2022-12-14T15:48:45.992Z,18.27
2022-12-14T15:51:16.507Z,28.80
2022-12-14T15:53:44.052Z,26.63
2022-12-14T15:56:39.560Z,24.83
2022-12-14T15:59:34.358Z,26.27
2022-12-14T16:02:07.622Z,26.97
2022-12-14T16:04:33.206Z,26.57
2022-12-14T16:07:08.510Z,23.63
2022-12-14T16:09:50.611Z,24.30
2022-12-14T16:12:19.579Z,26.42
2022-12-14T16:14:47.873Z,22.30
2022-12-14T16:17:21.147Z,22.17
2022-12-14T16:19:59.615Z,25.10
2022-12-14T16:22:22.881Z,22.60
2022-12-14T16:25:08.654Z,20.60
2022-12-14T16:27:41.726Z,19.57
2022-12-14T16:30:24.694Z,23.90
2022-12-14T16:32:52.246Z,21.00
2022-12-14T16:35:19.782Z,34.22
2022-12-14T16:37:47.379Z,28.58
2022-12-14T16:40:33.780Z,34.72
2022-12-14T16:43:01.355Z,31.97
2022-12-14T16:45:32.395Z,22.17
2022-12-14T16:48:02.831Z,24.90
2022-12-14T16:50:55.744Z,22.10
2022-12-14T16:53:16.145Z,21.33
2022-12-14T16:56:04.899Z,25.37
2022-12-14T16:58:32.442Z,22.73
2022-12-14T17:01:00.022Z,25.25
2022-12-14T17:03:29.776Z,28.85
2022-12-14T17:05:56.734Z,23.47
2022-12-14T17:08:24.309Z,28.23
2022-12-14T17:10:52.149Z,28.93
2022-12-14T17:13:19.693Z,34.63
2022-12-14T17:16:06.212Z,35.50
2022-12-14T17:18:33.758Z,26.33
2022-12-14T17:21:02.052Z,34.03
2022-12-14T17:23:30.008Z,28.60
2022-12-14T17:25:57.148Z,29.00
2022-12-14T17:28:24.682Z,30.83
2022-12-14T17:30:54.000Z,27.80
2022-12-14T17:33:21.466Z,29.67
2022-12-14T17:35:49.001Z,25.10
2022-12-14T17:38:17.934Z,30.93
2022-12-14T17:40:45.468Z,26.87
2022-12-14T17:43:15.680Z,26.93
2022-12-14T17:45:44.039Z,28.37
2022-12-14T17:48:14.509Z,30.37
2022-12-14T17:50:42.035Z,26.13
2022-12-14T17:53:13.344Z,24.63
2022-12-14T17:55:40.884Z,29.57
2022-12-14T17:58:08.448Z,26.93
2022-12-14T18:00:54.731Z,24.23
2022-12-14T18:03:22.342Z,26.40
2022-12-14T18:05:50.577Z,25.43
2022-12-14T18:08:18.147Z,24.23
2022-12-14T18:10:45.706Z,26.57
2022-12-14T18:13:13.242Z,27.87
2022-12-14T18:15:50.156Z,30.20
2022-12-14T18:18:17.015Z,29.37
2022-12-14T18:20:44.559Z,40.73
2022-12-14T18:23:15.571Z,33.83
2022-12-14T18:25:43.104Z,35.20
2022-12-14T18:28:10.649Z,30.13
2022-12-14T18:30:43.197Z,28.13
2022-12-14T18:33:06.540Z,30.43
2022-12-14T18:35:34.067Z,37.25
2022-12-14T18:38:01.934Z,37.87
2022-12-14T18:40:29.469Z,34.03
2022-12-14T18:42:57.785Z,37.20
2022-12-14T18:45:25.392Z,36.90
2022-12-14T18:47:52.967Z,37.10
2022-12-14T18:50:20.465Z,55.50
2022-12-14T18:52:48.041Z,75.20
2022-12-14T18:55:18.568Z,75.27
2022-12-14T18:57:46.085Z,51.93
2022-12-14T19:00:15.303Z,52.23
2022-12-14T19:02:43.069Z,61.07
2022-12-14T19:05:11.150Z,53.73
2022-12-14T19:07:38.734Z,48.23
2022-12-14T19:10:06.279Z,47.90
2022-12-14T19:12:33.832Z,43.03
2022-12-14T19:15:01.683Z,39.23
2022-12-14T19:17:29.217Z,35.07
2022-12-14T19:19:57.522Z,35.63
2022-12-14T19:22:25.390Z,26.77
2022-12-14T19:24:52.914Z,29.43
2022-12-14T19:27:43.907Z,25.43
2022-12-14T19:29:48.022Z,19.60
2022-12-14T19:32:15.548Z,25.53
2022-12-14T19:34:43.073Z,28.03
2022-12-14T19:37:10.672Z,21.33
2022-12-14T19:39:38.199Z,25.90
2022-12-14T19:42:05.728Z,24.83
2022-12-14T19:44:34.071Z,24.93
2022-12-14T19:47:01.676Z,43.00
2022-12-14T19:49:29.159Z,48.07
2022-12-14T19:51:57.315Z,33.13
2022-12-14T19:54:24.859Z,28.90
2022-12-14T19:56:53.142Z,36.17
2022-12-14T19:59:20.716Z,46.10
2022-12-14T20:01:48.595Z,39.07
2022-12-14T20:04:15.855Z,35.70
2022-12-14T20:06:44.191Z,34.23
2022-12-14T20:09:11.698Z,28.53
2022-12-14T20:11:39.228Z,28.57
2022-12-14T20:14:06.825Z,23.30
2022-12-14T20:16:34.389Z,37.40
2022-12-14T20:19:01.911Z,39.20
2022-12-14T20:21:29.514Z,39.03
2022-12-14T20:23:59.738Z,56.97
2022-12-14T20:26:27.290Z,49.03
2022-12-14T20:28:54.875Z,42.23
2022-12-14T20:31:23.261Z,26.87
2022-12-14T20:33:50.718Z,29.47
2022-12-14T20:36:20.906Z,27.63
2022-12-14T20:38:49.102Z,29.70
2022-12-14T20:41:15.973Z,24.63
2022-12-14T20:43:44.158Z,23.23
2022-12-14T20:46:32.791Z,25.67
2022-12-14T20:49:00.298Z,24.43
2022-12-14T20:51:30.872Z,23.33
2022-12-14T20:53:59.189Z,28.50
2022-12-14T20:56:26.754Z,28.57
2022-12-14T20:58:54.289Z,25.67
2022-12-14T21:01:22.105Z,23.27
2022-12-14T21:03:49.481Z,22.80
2022-12-14T21:06:16.951Z,26.40
2022-12-14T21:09:03.410Z,25.60
2022-12-14T21:11:49.092Z,24.07
2022-12-14T21:14:16.665Z,40.45
2022-12-14T21:16:44.254Z,40.97
2022-12-14T21:19:12.029Z,46.23
2022-12-14T21:21:39.564Z,36.93
2022-12-14T21:24:10.772Z,36.13
2022-12-14T21:26:38.318Z,34.83
2022-12-14T21:29:06.787Z,43.53
2022-12-14T21:31:34.389Z,44.70
2022-12-14T21:34:02.633Z,41.47
2022-12-14T21:36:30.200Z,40.63
2022-12-14T21:38:57.753Z,36.43
2022-12-14T21:41:43.286Z,35.87
2022-12-14T21:44:11.599Z,30.50
2022-12-14T21:46:39.139Z,29.83
2022-12-14T21:49:07.446Z,33.23
2022-12-14T21:51:34.990Z,26.37
2022-12-14T21:54:02.526Z,29.23
2022-12-14T21:56:58.989Z,29.00
2022-12-14T21:59:32.036Z,30.60
2022-12-14T22:02:00.526Z,31.00
2022-12-14T22:04:27.924Z,30.70
2022-12-14T22:06:55.456Z,32.40
2022-12-14T22:09:22.986Z,25.80
2022-12-14T22:11:51.317Z,25.03
2022-12-14T22:14:18.863Z,25.27
2022-12-14T22:16:46.439Z,26.10
2022-12-14T22:19:13.991Z,24.27
2022-12-14T22:21:41.507Z,23.13
2022-12-14T22:24:09.808Z,23.03
2022-12-14T22:26:37.382Z,24.27
2022-12-14T22:29:04.937Z,26.40
2022-12-14T22:31:32.558Z,22.07
2022-12-14T22:34:01.297Z,27.33
2022-12-14T22:36:28.834Z,25.80
2022-12-14T22:38:56.365Z,24.43
2022-12-14T22:41:24.699Z,22.33
2022-12-14T22:43:55.050Z,23.57
2022-12-14T22:46:22.699Z,23.27
2022-12-14T22:48:50.167Z,24.60
2022-12-14T22:51:17.703Z,24.77
2022-12-14T22:53:45.238Z,30.73
2022-12-14T22:56:27.654Z,36.13
2022-12-14T22:59:17.730Z,42.33
2022-12-14T23:01:49.877Z,53.67
2022-12-14T23:04:12.940Z,51.27
2022-12-14T23:06:40.385Z,46.50
2022-12-14T23:09:27.628Z,57.93
2022-12-14T23:12:13.474Z,38.13
2022-12-14T23:14:59.030Z,41.07
2022-12-14T23:17:44.780Z,40.17
2022-12-14T23:20:30.346Z,43.30
2022-12-14T23:23:16.164Z,37.57
2022-12-14T23:26:02.019Z,45.67
2022-12-14T23:28:49.794Z,46.07
2022-12-14T23:31:33.810Z,45.53
2022-12-14T23:34:19.726Z,50.40
2022-12-14T23:37:05.428Z,38.87
2022-12-14T23:39:51.138Z,31.10
2022-12-14T23:42:37.529Z,33.08
2022-12-14T23:45:22.957Z,31.87
2022-12-14T23:48:08.744Z,34.63
2022-12-14T23:50:54.385Z,29.30
2022-12-14T23:53:41.043Z,28.93
2022-12-14T23:56:26.832Z,28.33
2022-12-14T23:59:14.136Z,25.70
